createdAt,value
2022-11-29T00:01:52.208Z,54.83
2022-11-29T00:07:16.125Z,57.05
2022-11-29T00:12:41.148Z,64.07
2022-11-29T00:18:05.176Z,51.55
2022-11-29T00:23:28.819Z,50.25
2022-11-29T00:28:54.135Z,46.08
2022-11-29T00:34:17.956Z,48.00
2022-11-29T00:39:41.781Z,54.53
2022-11-29T00:45:08.041Z,45.63
2022-11-29T00:50:31.828Z,58.05
2022-11-29T00:55:56.176Z,50.80
2022-11-29T01:01:21.365Z,49.45
2022-11-29T01:06:45.092Z,46.00
2022-11-29T01:12:09.052Z,58.35
2022-11-29T01:17:35.994Z,47.50
2022-11-29T01:23:00.145Z,45.58
2022-11-29T01:28:23.815Z,47.40
2022-11-29T01:33:48.862Z,51.78
2022-11-29T01:39:12.831Z,54.15
2022-11-29T01:45:03.068Z,42.40
2022-11-29T01:50:28.140Z,41.65
2022-11-29T01:55:56.617Z,45.13
2022-11-29T02:01:20.506Z,47.83
2022-11-29T02:06:46.830Z,49.53
2022-11-29T02:12:22.406Z,47.40
2022-11-29T02:17:59.402Z,39.47
2022-11-29T02:24:02.694Z,48.67
2022-11-29T02:29:42.044Z,45.13
2022-11-29T02:35:20.606Z,39.70
2022-11-29T02:41:06.833Z,42.25
2022-11-29T02:46:53.219Z,39.53
2022-11-29T02:52:23.505Z,42.20
2022-11-29T02:57:56.366Z,38.47
2022-11-29T03:03:26.095Z,41.53
2022-11-29T03:08:58.629Z,36.78
2022-11-29T03:14:26.187Z,35.42
2022-11-29T03:20:05.038Z,40.20
2022-11-29T03:25:35.053Z,31.33
2022-11-29T03:31:05.230Z,30.70
2022-11-29T03:36:37.989Z,28.50
2022-11-29T03:42:07.754Z,30.45
2022-11-29T03:47:36.433Z,32.33
2022-11-29T03:53:06.218Z,29.38
2022-11-29T03:58:53.914Z,33.45
2022-11-29T04:04:50.037Z,29.38
2022-11-29T04:10:27.189Z,35.38
2022-11-29T04:16:19.571Z,31.90
2022-11-29T04:27:31.342Z,25.77
2022-11-29T04:33:30.264Z,29.58
2022-11-29T04:39:34.984Z,30.27
2022-11-29T04:45:31.209Z,38.40
2022-11-29T04:51:07.271Z,26.60
2022-11-29T04:56:41.418Z,32.28
2022-11-29T05:02:15.032Z,36.85
2022-11-29T05:07:49.292Z,32.20
2022-11-29T05:13:20.065Z,38.35
2022-11-29T05:18:59.519Z,38.72
2022-11-29T05:24:36.334Z,45.47
2022-11-29T05:30:05.694Z,40.22
2022-11-29T05:35:50.368Z,39.75
2022-11-29T05:41:28.516Z,35.97
2022-11-29T05:46:56.809Z,30.98
2022-11-29T05:52:25.433Z,34.58
2022-11-29T05:57:57.855Z,33.72
2022-11-29T06:03:30.029Z,40.80
2022-11-29T06:08:58.510Z,41.17
2022-11-29T06:14:40.894Z,37.30
2022-11-29T06:20:21.019Z,30.20
2022-11-29T06:26:03.535Z,32.15
2022-11-29T06:31:33.671Z,39.83
2022-11-29T06:37:05.277Z,37.60
2022-11-29T06:42:28.997Z,46.83
2022-11-29T06:47:59.732Z,41.15
2022-11-29T06:53:29.438Z,39.45
2022-11-29T06:59:02.768Z,35.63
2022-11-29T07:04:46.402Z,29.35
2022-11-29T07:10:16.354Z,32.22
2022-11-29T07:15:41.932Z,39.55
2022-11-29T07:21:17.987Z,30.70
2022-11-29T07:26:47.581Z,30.83
2022-11-29T07:32:23.547Z,37.95
2022-11-29T07:38:00.758Z,31.55
2022-11-29T07:43:37.129Z,42.22
2022-11-29T07:49:00.780Z,37.00
2022-11-29T07:54:25.839Z,37.45
2022-11-29T07:59:50.151Z,36.92
2022-11-29T08:05:13.988Z,34.40
2022-11-29T08:10:39.791Z,40.33
2022-11-29T08:16:03.617Z,30.15
2022-11-29T08:21:27.445Z,40.90
2022-11-29T08:26:52.463Z,36.95
2022-11-29T08:32:16.190Z,38.85
2022-11-29T08:37:39.842Z,38.13
2022-11-29T08:43:04.884Z,38.33
2022-11-29T08:48:28.659Z,38.20
2022-11-29T08:53:52.766Z,40.67
2022-11-29T08:59:17.776Z,29.35
2022-11-29T09:04:41.443Z,33.45
2022-11-29T09:10:08.166Z,32.97
2022-11-29T09:15:33.273Z,30.85
2022-11-29T09:20:56.909Z,37.17
2022-11-29T09:26:21.016Z,28.48
2022-11-29T09:31:46.213Z,33.85
2022-11-29T09:37:09.899Z,32.88
2022-11-29T09:42:45.728Z,37.25
2022-11-29T09:48:29.505Z,26.83
2022-11-29T09:54:06.787Z,36.55
2022-11-29T09:59:37.314Z,37.60
2022-11-29T10:05:07.663Z,35.33
2022-11-29T10:10:40.875Z,35.30
2022-11-29T10:16:12.977Z,34.00
2022-11-29T10:21:42.594Z,38.33
2022-11-29T10:27:13.725Z,35.53
2022-11-29T10:32:37.449Z,36.77
2022-11-29T10:38:29.736Z,46.00
2022-11-29T10:43:50.452Z,33.13
2022-11-29T10:49:16.593Z,34.28
2022-11-29T10:54:43.843Z,38.72
2022-11-29T11:00:11.456Z,37.28
2022-11-29T11:05:36.439Z,36.20
2022-11-29T11:11:03.056Z,36.72
2022-11-29T11:16:29.705Z,34.85
2022-11-29T11:21:57.278Z,35.33
2022-11-29T11:27:31.575Z,36.65
2022-11-29T11:33:08.895Z,36.78
2022-11-29T11:38:33.314Z,30.85
2022-11-29T11:44:00.814Z,34.95
2022-11-29T11:49:30.440Z,35.83
2022-11-29T11:54:56.932Z,33.60
2022-11-29T12:01:02.790Z,34.35
2022-11-29T12:06:31.262Z,33.65
2022-11-29T12:12:01.384Z,31.13
2022-11-29T12:17:33.352Z,39.63
2022-11-29T12:28:30.967Z,40.28
2022-11-29T12:34:11.217Z,37.30
2022-11-29T12:39:50.733Z,39.72
2022-11-29T12:45:26.881Z,48.65
2022-11-29T12:51:02.375Z,39.05
2022-11-29T12:56:29.246Z,45.92
2022-11-29T13:02:15.169Z,45.10
2022-11-29T13:07:51.366Z,41.00
2022-11-29T13:13:24.706Z,46.90
2022-11-29T13:18:56.312Z,43.33
2022-11-29T13:24:25.668Z,52.33
2022-11-29T13:29:50.156Z,44.70
2022-11-29T13:35:31.541Z,54.05
2022-11-29T13:41:00.853Z,60.05
2022-11-29T13:46:29.384Z,49.85
2022-11-29T13:52:05.928Z,43.42
2022-11-29T13:58:14.375Z,52.75
2022-11-29T14:03:38.470Z,47.60
2022-11-29T14:09:34.857Z,106.53
2022-11-29T14:15:02.554Z,49.72
2022-11-29T14:20:57.027Z,49.97
2022-11-29T14:26:29.166Z,51.50
2022-11-29T14:31:56.238Z,49.70
2022-11-29T14:37:41.734Z,54.80
2022-11-29T14:43:17.630Z,56.38
2022-11-29T14:48:47.930Z,59.75
2022-11-29T14:54:18.360Z,49.20
2022-11-29T14:59:49.645Z,51.22
2022-11-29T15:05:19.682Z,52.50
2022-11-29T15:10:49.350Z,52.95
2022-11-29T15:16:24.253Z,59.00
2022-11-29T15:21:57.180Z,46.80
2022-11-29T15:27:21.753Z,56.08
2022-11-29T15:32:45.426Z,54.88
2022-11-29T15:38:18.272Z,51.10
2022-11-29T15:43:42.395Z,62.35
2022-11-29T15:49:19.443Z,58.65
2022-11-29T15:54:46.909Z,53.60
2022-11-29T16:00:20.010Z,62.42
2022-11-29T16:05:43.959Z,57.83
2022-11-29T16:11:16.416Z,58.70
2022-11-29T16:16:41.483Z,66.82
2022-11-29T16:22:15.128Z,53.88
2022-11-29T16:27:40.220Z,57.70
2022-11-29T16:33:04.296Z,52.47
2022-11-29T16:38:27.944Z,54.38
2022-11-29T16:43:56.020Z,47.42
2022-11-29T16:49:35.398Z,46.53
2022-11-29T16:54:59.248Z,50.28
2022-11-29T17:00:29.805Z,52.50
2022-11-29T17:05:54.115Z,47.83
2022-11-29T17:11:18.491Z,51.88
2022-11-29T17:16:43.589Z,56.05
2022-11-29T17:22:07.292Z,47.92
2022-11-29T17:27:31.028Z,48.10
2022-11-29T17:32:56.060Z,47.63
2022-11-29T17:38:19.757Z,52.03
2022-11-29T17:43:43.603Z,59.67
2022-11-29T17:49:10.510Z,57.35
2022-11-29T17:54:35.991Z,54.15
2022-11-29T17:59:59.730Z,54.58
2022-11-29T18:05:25.658Z,48.17
2022-11-29T18:10:51.632Z,51.00
2022-11-29T18:16:17.146Z,55.28
2022-11-29T18:21:42.279Z,51.08
2022-11-29T18:27:05.921Z,57.17
2022-11-29T18:32:29.744Z,56.15
2022-11-29T18:38:14.539Z,61.70
2022-11-29T18:43:40.120Z,61.65
2022-11-29T18:49:05.385Z,63.58
2022-11-29T18:54:31.028Z,65.80
2022-11-29T18:59:54.682Z,57.72
2022-11-29T19:05:18.498Z,53.65
2022-11-29T19:10:44.742Z,53.70
2022-11-29T19:16:13.062Z,51.75
2022-11-29T19:21:36.963Z,48.55
2022-11-29T19:27:03.277Z,54.25
2022-11-29T19:32:26.969Z,57.08
2022-11-29T19:37:50.658Z,56.78
2022-11-29T19:43:15.737Z,51.15
2022-11-29T19:48:39.639Z,55.72
2022-11-29T19:54:05.553Z,52.90
2022-11-29T19:59:30.585Z,65.22
2022-11-29T20:04:54.529Z,68.97
2022-11-29T20:10:20.443Z,58.00
2022-11-29T20:15:45.492Z,60.72
2022-11-29T20:21:10.841Z,63.85
2022-11-29T20:26:36.882Z,45.53
2022-11-29T20:32:02.013Z,103.70
2022-11-29T20:37:37.859Z,66.15
2022-11-29T20:43:14.726Z,80.35
2022-11-29T20:48:40.317Z,49.13
2022-11-29T20:54:04.798Z,43.22
2022-11-29T20:59:28.416Z,37.22
2022-11-29T21:04:53.411Z,33.42
2022-11-29T21:10:17.301Z,32.80
2022-11-29T21:15:41.552Z,34.97
2022-11-29T21:21:18.955Z,30.23
2022-11-29T21:26:45.843Z,27.88
2022-11-29T21:32:22.092Z,26.55
2022-11-29T21:37:47.822Z,33.17
2022-11-29T21:43:11.614Z,29.40
2022-11-29T21:48:37.953Z,30.60
2022-11-29T21:54:06.893Z,24.35
2022-11-29T21:59:30.678Z,32.33
2022-11-29T22:04:54.446Z,28.50
2022-11-29T22:10:19.658Z,28.45
2022-11-29T22:15:43.398Z,26.08
2022-11-29T22:21:08.462Z,24.80
2022-11-29T22:26:33.537Z,24.15
2022-11-29T22:31:59.361Z,21.00
2022-11-29T22:37:23.057Z,27.17
2022-11-29T22:42:50.468Z,21.52
2022-11-29T22:48:14.177Z,21.00
2022-11-29T22:53:39.428Z,21.88
2022-11-29T22:59:04.778Z,21.42
2022-11-29T23:04:28.451Z,17.98
2022-11-29T23:09:52.262Z,17.95
2022-11-29T23:15:17.459Z,22.27
2022-11-29T23:20:41.141Z,18.60
2022-11-29T23:26:06.281Z,24.08
2022-11-29T23:31:31.792Z,20.85
2022-11-29T23:36:55.548Z,25.65
2022-11-29T23:42:19.206Z,20.50
2022-11-29T23:47:44.216Z,19.35
2022-11-29T23:53:07.866Z,24.08
2022-11-29T23:58:32.437Z,19.17
